Austin (LCRA Redbud)'s Hourly Summary for Saturday, May 12, 2018
Hour Temp
(f)
RH
(%)
Solar Rad.
(MJ/m2)
Rainfall
(in)
Wind
(mph)
5/12/2018 12:00 AM 75 77 0 0 0.4
5/12/2018 1:00 AM 74 79 0 0 0.4
5/12/2018 2:00 AM 74 80 0 0 0.4
5/12/2018 3:00 AM 74 80 0 0 0.4
5/12/2018 4:00 AM 74 79 0 0 0.4
5/12/2018 5:00 AM 73 80 0 0 0.4
5/12/2018 6:00 AM 73 81 0 0 0.4
5/12/2018 7:00 AM 73 81 0.02 0 0.4
5/12/2018 8:00 AM 74 81 0.26 0 0.4
5/12/2018 9:00 AM 77 73 0.85 0 0.4
5/12/2018 10:00 AM 79 62 1.33 0 0.4
5/12/2018 11:00 AM 82 58 1.14 0 0.4
5/12/2018 12:00 PM 84 51 2.94 0 0.4
5/12/2018 1:00 PM 85 49 2.75 0 0.4
5/12/2018 2:00 PM 87 49 2.35 0 0.4
5/12/2018 3:00 PM 89 41 3.28 0 0.4
5/12/2018 4:00 PM 90 40 2.38 0 0.4
5/12/2018 5:00 PM 90 37 2.32 0 0.4
5/12/2018 6:00 PM 90 37 1.61 0 0.4
5/12/2018 7:00 PM 89 41 0.97 0 0.4
5/12/2018 8:00 PM 87 47 0.15 0 0.4
5/12/2018 9:00 PM 84 54 0 0 0.4
5/12/2018 10:00 PM 81 60 0 0 0.4
5/12/2018 11:00 PM 79 69 0 0 0.4
Data Summary 80 61 22.35 0.00 0.40